Time;durP1;ratioP1;P1;durP2;ratioP2;P2;SDS_P1;SDS_P2;PMS_P1;PMS_P2;Temp;Humidity;BMP_temperature;BMP_pressure;BME280_temperature;BME280_humidity;BME280_pressure;Samples;Min_cycle;Max_cycle;Signal;HPM_P1;HPM_P2
2021/04/07 00:02:01;;;;;;;17.65;2.92;;;-0.10;99.90;;;;;;5059044;28;20153;-57
2021/04/07 00:04:26;;;;;;;12.80;2.50;;;-0.10;99.90;;;;;;5059099;28;20115;-59
2021/04/07 00:06:54;;;;;;;15.63;2.33;;;-0.10;99.90;;;;;;5058490;28;20103;-59
2021/04/07 00:09:21;;;;;;;17.92;3.10;;;-0.20;99.90;;;;;;5058350;28;20175;-58
2021/04/07 00:11:47;;;;;;;15.98;2.60;;;-0.20;99.90;;;;;;5058466;28;20049;-58
2021/04/07 00:14:13;;;;;;;22.55;3.13;;;-0.20;99.90;;;;;;5058588;28;20095;-59
2021/04/07 00:16:39;;;;;;;16.25;2.60;;;-0.20;99.90;;;;;;5058501;28;20425;-59
2021/04/07 00:19:09;;;;;;;20.37;3.00;;;-0.20;99.90;;;;;;5058967;28;20076;-59
2021/04/07 00:21:35;;;;;;;14.60;2.55;;;-0.20;99.90;;;;;;5059076;28;20045;-59
2021/04/07 00:24:02;;;;;;;16.52;2.70;;;-0.30;99.90;;;;;;5058601;28;20049;-59
2021/04/07 00:26:28;;;;;;;10.88;2.30;;;-0.30;99.90;;;;;;5058405;28;20044;-59
2021/04/07 00:28:53;;;;;;;11.90;2.78;;;-0.30;99.90;;;;;;5058067;28;20051;-59
2021/04/07 00:31:19;;;;;;;13.13;1.97;;;-0.30;99.90;;;;;;5058168;28;20041;-57
2021/04/07 00:33:45;;;;;;;14.97;2.60;;;-0.30;99.90;;;;;;5058236;28;20076;-59
2021/04/07 00:36:10;;;;;;;8.43;2.13;;;-0.30;99.90;;;;;;5058672;28;20045;-59
2021/04/07 00:38:36;;;;;;;24.40;3.03;;;-0.40;99.90;;;;;;5057954;28;20041;-58
2021/04/07 00:41:02;;;;;;;16.00;2.23;;;-0.30;99.90;;;;;;5056227;28;20041;-59
2021/04/07 00:43:28;;;;;;;20.87;2.30;;;-0.40;99.90;;;;;;5057607;28;20052;-58
2021/04/07 00:45:54;;;;;;;9.53;2.03;;;-0.40;99.90;;;;;;5057374;28;20563;-59
2021/04/07 00:48:21;;;;;;;15.27;1.77;;;-0.40;99.90;;;;;;5054948;28;20072;-58
2021/04/07 00:50:46;;;;;;;10.48;2.15;;;-0.40;99.90;;;;;;5055911;28;20132;-59
2021/04/07 00:53:12;;;;;;;12.68;2.38;;;-0.40;99.90;;;;;;5054521;28;20139;-58
2021/04/07 00:55:44;;;;;;;12.97;2.17;;;-0.40;99.90;;;;;;5055191;28;20041;-59
2021/04/07 00:58:12;;;;;;;16.90;2.55;;;-0.30;99.90;;;;;;5055530;28;20053;-59
2021/04/07 01:00:39;;;;;;;12.63;2.00;;;-0.30;99.90;;;;;;5056012;28;20041;-59
2021/04/07 01:03:06;;;;;;;12.02;2.03;;;-0.40;99.90;;;;;;5055745;28;20044;-59
2021/04/07 01:05:32;;;;;;;13.25;1.80;;;-0.40;99.90;;;;;;5055291;28;20495;-59
2021/04/07 01:07:58;;;;;;;13.23;2.23;;;-0.40;99.90;;;;;;5053865;28;20060;-58
2021/04/07 01:10:25;;;;;;;12.88;1.90;;;-0.40;99.90;;;;;;5052144;28;20182;-58
2021/04/07 01:12:52;;;;;;;16.35;2.10;;;-0.40;99.90;;;;;;5053757;28;20051;-59
2021/04/07 01:15:18;;;;;;;12.98;1.88;;;-0.50;99.90;;;;;;5053514;28;20124;-58
2021/04/07 01:17:45;;;;;;;15.40;3.75;;;-0.40;99.90;;;;;;5053799;28;20482;-57
2021/04/07 01:20:13;;;;;;;13.98;2.53;;;-0.40;99.90;;;;;;5053596;28;20064;-57
2021/04/07 01:22:40;;;;;;;13.30;2.25;;;-0.50;99.90;;;;;;5053779;28;20084;-58
2021/04/07 01:25:08;;;;;;;18.15;2.20;;;-0.50;99.90;;;;;;5054138;28;20040;-56
2021/04/07 01:27:39;;;;;;;13.15;2.08;;;-0.60;99.90;;;;;;5053523;28;20132;-57
2021/04/07 01:30:11;;;;;;;12.77;2.30;;;-0.60;99.90;;;;;;5053963;28;20056;-57
2021/04/07 01:32:38;;;;;;;20.58;2.40;;;-0.60;99.90;;;;;;5053623;28;20053;-57
2021/04/07 01:35:05;;;;;;;15.75;3.03;;;-0.70;99.90;;;;;;5054430;28;20044;-57
2021/04/07 01:37:36;;;;;;;14.18;2.15;;;-0.60;99.90;;;;;;5054189;28;20370;-57
2021/04/07 01:40:08;;;;;;;13.15;2.63;;;-0.70;99.90;;;;;;5054626;28;20055;-57
2021/04/07 01:42:34;;;;;;;17.45;2.20;;;-0.70;99.90;;;;;;5054461;28;20098;-57
2021/04/07 01:45:04;;;;;;;14.77;2.42;;;-0.70;99.90;;;;;;5053109;28;20136;-57
2021/04/07 01:47:32;;;;;;;18.33;2.30;;;-0.70;99.90;;;;;;5052970;28;20053;-57
2021/04/07 01:50:00;;;;;;;14.25;2.70;;;-0.70;99.90;;;;;;5053674;28;20491;-58
2021/04/07 01:52:27;;;;;;;12.52;2.08;;;-0.60;99.90;;;;;;5052795;28;20041;-58
2021/04/07 01:54:54;;;;;;;13.80;2.20;;;-0.60;99.90;;;;;;5053049;28;20066;-58
2021/04/07 01:57:20;;;;;;;8.73;2.00;;;-0.50;99.90;;;;;;5053720;28;20147;-58
2021/04/07 01:59:46;;;;;;;10.73;1.77;;;-0.50;99.90;;;;;;5055197;28;20053;-58
2021/04/07 02:02:13;;;;;;;10.70;1.83;;;-0.50;99.90;;;;;;5054509;28;20117;-58
2021/04/07 02:04:40;;;;;;;12.47;2.20;;;-0.40;99.90;;;;;;5055110;28;20073;-56
2021/04/07 02:07:13;;;;;;;10.73;1.70;;;0.10;99.90;;;;;;5053086;28;20448;-57
2021/04/07 02:09:40;;;;;;;9.05;1.75;;;-0.50;99.90;;;;;;5054723;28;20049;-58
2021/04/07 02:12:06;;;;;;;10.07;2.00;;;-0.50;99.90;;;;;;5055467;28;20482;-57
2021/04/07 02:14:32;;;;;;;14.90;2.20;;;-0.50;99.90;;;;;;5055009;28;20055;-57
2021/04/07 02:17:04;;;;;;;13.73;3.67;;;-0.50;99.90;;;;;;5054416;28;20048;-56
2021/04/07 02:19:31;;;;;;;10.20;1.70;;;-0.50;99.90;;;;;;5052971;28;20045;-57
2021/04/07 02:22:01;;;;;;;10.75;1.98;;;-0.50;99.90;;;;;;5053350;28;20105;-57
2021/04/07 02:24:27;;;;;;;8.98;1.60;;;-0.40;99.90;;;;;;5053633;28;20094;-57
2021/04/07 02:26:53;;;;;;;10.55;1.85;;;-0.40;99.90;;;;;;5053161;28;20444;-57
2021/04/07 02:29:19;;;;;;;13.80;1.63;;;-0.40;99.90;;;;;;5053385;28;20110;-57
2021/04/07 02:31:44;;;;;;;7.87;1.40;;;-0.40;99.90;;;;;;5054273;28;20091;-58
2021/04/07 02:34:11;;;;;;;10.93;1.67;;;-0.40;99.90;;;;;;5055356;28;20071;-58
2021/04/07 02:36:37;;;;;;;8.57;1.48;;;-0.40;99.90;;;;;;5055576;28;20056;-58
2021/04/07 02:39:04;;;;;;;7.97;1.60;;;-0.40;99.90;;;;;;5055633;28;20053;-58
2021/04/07 02:41:31;;;;;;;6.10;1.63;;;-0.40;99.90;;;;;;5056177;28;20045;-58
2021/04/07 02:43:56;;;;;;;7.18;1.58;;;-0.30;99.90;;;;;;5055932;28;20045;-58
2021/04/07 02:46:23;;;;;;;5.63;1.63;;;-0.30;99.90;;;;;;5055858;28;20067;-57
2021/04/07 02:48:48;;;;;;;10.20;1.70;;;-0.30;99.90;;;;;;5054306;28;20077;-57
2021/04/07 02:51:15;;;;;;;7.25;1.63;;;-0.30;99.90;;;;;;5056316;28;20143;-57
2021/04/07 02:53:41;;;;;;;9.47;1.53;;;-0.20;99.90;;;;;;5056081;28;20080;-58
2021/04/07 02:56:07;;;;;;;8.68;1.52;;;-0.20;99.90;;;;;;5056484;28;20033;-59
2021/04/07 02:58:32;;;;;;;8.17;1.73;;;-0.20;99.90;;;;;;5056115;28;20049;-57
2021/04/07 03:00:58;;;;;;;8.18;1.60;;;-0.10;99.90;;;;;;5055508;28;20040;-58
2021/04/07 03:03:24;;;;;;;10.10;1.60;;;-0.10;99.90;;;;;;5056591;28;20436;-58
2021/04/07 03:05:50;;;;;;;7.60;1.60;;;0.00;99.90;;;;;;5059466;28;20041;-57
2021/04/07 03:08:15;;;;;;;10.17;1.73;;;0.00;99.90;;;;;;5058873;28;20211;-59
2021/04/07 03:10:41;;;;;;;8.60;1.60;;;0.00;99.90;;;;;;5059412;28;20053;-59
2021/04/07 03:13:07;;;;;;;9.97;1.97;;;0.10;99.90;;;;;;5057014;28;20407;-58
2021/04/07 03:15:32;;;;;;;6.73;1.83;;;0.10;99.90;;;;;;5059922;28;20051;-58
2021/04/07 03:17:58;;;;;;;11.47;2.27;;;0.10;99.90;;;;;;5058869;28;20091;-58
2021/04/07 03:20:24;;;;;;;9.37;1.80;;;0.20;99.90;;;;;;5059239;28;20060;-58
2021/04/07 03:22:49;;;;;;;10.67;1.93;;;0.30;99.90;;;;;;5058834;28;20056;-59
2021/04/07 03:25:15;;;;;;;8.50;1.97;;;0.20;99.90;;;;;;5057566;28;20045;-58
2021/04/07 03:27:42;;;;;;;9.45;1.60;;;0.30;99.90;;;;;;5057920;28;20056;-59
2021/04/07 03:30:08;;;;;;;9.43;2.30;;;0.30;99.90;;;;;;5057750;28;20075;-58
2021/04/07 03:32:34;;;;;;;9.65;2.05;;;0.30;99.90;;;;;;5060723;28;20547;-59
2021/04/07 03:35:00;;;;;;;7.27;2.20;;;0.30;99.90;;;;;;5059644;28;20045;-58
2021/04/07 03:37:25;;;;;;;15.20;2.50;;;0.30;99.90;;;;;;5060887;28;20068;-58
2021/04/07 03:39:51;;;;;;;8.17;2.70;;;0.30;99.90;;;;;;5058044;28;20362;-59
2021/04/07 03:42:17;;;;;;;13.03;2.37;;;0.30;99.90;;;;;;5058352;28;20049;-58
2021/04/07 03:44:43;;;;;;;11.07;2.53;;;0.40;99.90;;;;;;5058141;28;20048;-59
2021/04/07 03:47:09;;;;;;;12.63;2.60;;;0.30;99.90;;;;;;5060424;28;20041;-58
2021/04/07 03:49:35;;;;;;;8.60;2.50;;;0.30;99.90;;;;;;5060662;28;20049;-58
2021/04/07 03:52:08;;;;;;;8.05;2.58;;;0.40;99.90;;;;;;5060201;28;20049;-59
2021/04/07 03:54:35;;;;;;;9.70;2.80;;;0.40;99.90;;;;;;5057810;28;20102;-58
2021/04/07 03:57:01;;;;;;;6.80;2.45;;;0.40;99.90;;;;;;5058148;28;20083;-59
2021/04/07 03:59:27;;;;;;;10.07;2.87;;;0.40;99.90;;;;;;5057779;28;20041;-58
2021/04/07 04:01:53;;;;;;;7.40;2.60;;;0.40;99.90;;;;;;5057184;28;20158;-58
2021/04/07 04:04:19;;;;;;;8.50;2.60;;;0.40;99.90;;;;;;5057605;28;20048;-58
2021/04/07 04:06:48;;;;;;;6.90;2.47;;;0.40;99.90;;;;;;5056928;28;20175;-58
2021/04/07 04:09:15;;;;;;;7.05;2.50;;;0.40;99.90;;;;;;5057568;28;20060;-58
2021/04/07 04:11:41;;;;;;;7.60;2.60;;;0.40;99.90;;;;;;5058323;28;20416;-58
2021/04/07 04:14:07;;;;;;;6.17;2.17;;;0.40;99.90;;;;;;5059184;28;20049;-58
2021/04/07 04:16:33;;;;;;;5.03;2.90;;;0.40;99.90;;;;;;5057587;28;20659;-58
2021/04/07 04:18:59;;;;;;;5.10;2.40;;;0.40;99.90;;;;;;5055892;28;20337;-58
2021/04/07 04:21:25;;;;;;;8.45;2.70;;;0.40;99.90;;;;;;5057883;28;20140;-58
2021/04/07 04:23:51;;;;;;;5.20;2.60;;;0.40;99.90;;;;;;5056154;28;20155;-58
2021/04/07 04:26:17;;;;;;;5.23;2.27;;;0.40;99.90;;;;;;5055830;28;20057;-58
2021/04/07 04:28:42;;;;;;;7.03;2.40;;;0.40;99.90;;;;;;5057483;28;20108;-58
2021/04/07 04:31:08;;;;;;;5.40;2.30;;;0.40;99.90;;;;;;5054977;28;20404;-58
2021/04/07 04:33:34;;;;;;;5.53;2.70;;;0.40;99.90;;;;;;5054784;28;20041;-58
2021/04/07 04:36:01;;;;;;;5.72;2.25;;;0.40;99.90;;;;;;5055430;28;20132;-58
2021/04/07 04:38:27;;;;;;;10.20;2.80;;;0.40;99.90;;;;;;5052984;28;20129;-58
2021/04/07 04:40:54;;;;;;;4.72;2.58;;;0.40;99.90;;;;;;5053531;28;20049;-58
2021/04/07 04:43:20;;;;;;;10.50;3.28;;;0.40;99.90;;;;;;5053306;28;20072;-58
2021/04/07 04:45:47;;;;;;;6.35;2.92;;;0.40;99.90;;;;;;5052100;28;20057;-57
2021/04/07 04:48:13;;;;;;;8.55;2.72;;;0.40;99.90;;;;;;5052882;28;20118;-57
2021/04/07 04:50:39;;;;;;;8.87;2.70;;;0.40;99.90;;;;;;5053325;28;20424;-58
2021/04/07 04:53:05;;;;;;;6.93;2.70;;;0.40;99.90;;;;;;5055476;28;20053;-57
2021/04/07 04:55:31;;;;;;;4.67;2.70;;;0.50;99.90;;;;;;5057722;28;20079;-59
2021/04/07 04:57:56;;;;;;;5.70;2.53;;;0.40;99.90;;;;;;5051242;28;20507;-58
2021/04/07 05:00:22;;;;;;;4.93;2.43;;;0.40;99.90;;;;;;5053713;28;20537;-57
2021/04/07 05:02:49;;;;;;;3.78;2.40;;;0.50;99.90;;;;;;5055094;28;20045;-57
2021/04/07 05:05:14;;;;;;;6.20;2.60;;;0.40;99.90;;;;;;5051066;28;20055;-58
2021/04/07 05:07:40;;;;;;;4.17;2.47;;;0.40;99.90;;;;;;5049749;28;20187;-58
2021/04/07 05:10:07;;;;;;;7.80;3.20;;;0.40;99.90;;;;;;5049791;28;20099;-61
2021/04/07 05:12:33;;;;;;;5.32;2.35;;;0.50;99.90;;;;;;5049414;28;20433;-57
2021/04/07 05:14:58;;;;;;;5.00;2.53;;;0.50;99.90;;;;;;5050145;28;20147;-58
2021/04/07 05:17:25;;;;;;;7.80;2.73;;;0.40;99.90;;;;;;5049979;28;20045;-59
2021/04/07 05:19:50;;;;;;;5.32;2.78;;;0.40;99.90;;;;;;5049991;28;20109;-59
2021/04/07 05:22:17;;;;;;;4.43;2.67;;;0.40;99.90;;;;;;5050451;28;20480;-59
2021/04/07 05:24:43;;;;;;;7.57;3.17;;;0.50;99.90;;;;;;5049802;28;20060;-58
2021/04/07 05:27:08;;;;;;;5.20;2.80;;;0.50;99.90;;;;;;5047998;28;20080;-58
2021/04/07 05:29:35;;;;;;;5.13;3.07;;;0.40;99.90;;;;;;5049173;28;20068;-58
2021/04/07 05:32:00;;;;;;;5.35;2.80;;;0.50;99.90;;;;;;5049196;28;20396;-58
2021/04/07 05:34:26;;;;;;;6.23;3.30;;;0.50;99.90;;;;;;5048889;28;20045;-59
2021/04/07 05:36:52;;;;;;;5.30;3.30;;;0.50;99.90;;;;;;5048921;28;20553;-58
2021/04/07 05:39:18;;;;;;;5.97;3.00;;;0.50;99.90;;;;;;5049824;28;20790;-58
2021/04/07 05:41:43;;;;;;;6.43;3.23;;;0.50;99.90;;;;;;5050423;28;20415;-58
2021/04/07 05:44:09;;;;;;;6.77;3.23;;;0.50;99.90;;;;;;5050429;28;20049;-59
2021/04/07 05:46:35;;;;;;;8.03;3.37;;;0.50;99.90;;;;;;5050286;28;20048;-58
2021/04/07 05:49:01;;;;;;;5.17;3.40;;;0.50;99.90;;;;;;5050320;28;20118;-56
2021/04/07 05:51:26;;;;;;;6.80;3.27;;;0.50;99.90;;;;;;5050281;28;20049;-56
2021/04/07 05:53:53;;;;;;;8.35;4.05;;;0.50;99.90;;;;;;5050296;28;20041;-57
2021/04/07 05:56:19;;;;;;;6.75;3.55;;;0.50;99.90;;;;;;5050551;28;20131;-57
2021/04/07 05:58:44;;;;;;;5.77;3.40;;;0.60;99.90;;;;;;5049676;28;20101;-56
2021/04/07 06:01:10;;;;;;;6.97;4.00;;;0.60;99.90;;;;;;5051922;28;20087;-57
2021/04/07 06:03:36;;;;;;;9.43;4.13;;;0.60;99.90;;;;;;5054250;28;20399;-56
2021/04/07 06:06:01;;;;;;;7.77;4.07;;;0.60;99.90;;;;;;5054595;28;20079;-56
2021/04/07 06:08:27;;;;;;;10.17;4.87;;;0.60;99.90;;;;;;5051930;28;20067;-66
2021/04/07 06:10:53;;;;;;;12.23;4.93;;;0.60;99.90;;;;;;5052963;28;20070;-57
2021/04/07 06:13:19;;;;;;;11.13;5.20;;;0.60;99.90;;;;;;5051716;28;20122;-57
2021/04/07 06:15:45;;;;;;;12.33;5.47;;;0.60;99.90;;;;;;5051549;28;20041;-57
2021/04/07 06:18:13;;;;;;;10.23;5.80;;;0.70;99.90;;;;;;5051664;28;20060;-57
2021/04/07 06:20:40;;;;;;;12.98;5.90;;;0.70;99.90;;;;;;5050094;28;20108;-57
2021/04/07 06:23:07;;;;;;;9.50;5.82;;;0.70;99.90;;;;;;5049654;28;20041;-58
2021/04/07 06:25:34;;;;;;;11.70;6.40;;;0.70;99.90;;;;;;5050239;28;20106;-57
2021/04/07 06:28:03;;;;;;;9.77;6.35;;;0.70;99.90;;;;;;5050177;28;20068;-57
2021/04/07 06:30:48;;;;;;;12.55;6.88;;;0.70;99.90;;;;;;5049972;28;20045;-57
2021/04/07 06:33:15;;;;;;;15.68;7.15;;;0.80;99.90;;;;;;5050544;28;20183;-57
2021/04/07 06:35:43;;;;;;;18.63;7.30;;;0.80;99.90;;;;;;5050488;28;20049;-57
2021/04/07 06:38:09;;;;;;;13.80;7.70;;;0.80;99.90;;;;;;5051371;28;20162;-58
2021/04/07 06:40:35;;;;;;;19.37;8.17;;;0.80;99.90;;;;;;5053587;28;20045;-57
2021/04/07 06:43:02;;;;;;;14.50;8.07;;;0.90;99.90;;;;;;5054594;28;20487;-58
2021/04/07 06:45:29;;;;;;;16.88;8.10;;;0.90;99.90;;;;;;5052904;28;20287;-57
2021/04/07 06:47:55;;;;;;;12.02;7.63;;;1.00;99.90;;;;;;5052377;28;20041;-56
2021/04/07 06:50:23;;;;;;;18.73;8.50;;;1.10;99.90;;;;;;5052556;28;20094;-56
2021/04/07 06:52:50;;;;;;;16.70;8.73;;;1.10;99.90;;;;;;5052479;28;20049;-56
2021/04/07 06:55:17;;;;;;;13.48;8.90;;;1.20;99.90;;;;;;5051780;28;20055;-57
2021/04/07 06:57:44;;;;;;;13.75;8.38;;;1.30;99.90;;;;;;5052169;28;20037;-56
2021/04/07 07:00:12;;;;;;;18.58;9.38;;;1.40;99.90;;;;;;5051984;28;20064;-55
2021/04/07 07:02:37;;;;;;;19.05;9.73;;;1.50;99.90;;;;;;5051860;28;20116;-55
2021/04/07 07:05:04;;;;;;;15.87;9.07;;;1.60;99.90;;;;;;5052061;28;20295;-57
2021/04/07 07:07:30;;;;;;;16.17;8.70;;;1.50;99.90;;;;;;5051766;28;20041;-57
2021/04/07 07:09:56;;;;;;;14.43;8.93;;;1.50;99.90;;;;;;5051819;28;20124;-56
2021/04/07 07:12:24;;;;;;;16.50;8.80;;;1.60;99.90;;;;;;5051440;28;20113;-56
2021/04/07 07:14:50;;;;;;;18.33;8.10;;;1.80;99.90;;;;;;5052187;28;20571;-57
2021/04/07 07:17:30;;;;;;;15.80;9.10;;;1.80;99.90;;;;;;5051994;28;20140;-57
2021/04/07 07:19:57;;;;;;;20.70;10.00;;;2.10;99.90;;;;;;5051166;28;20072;-53
2021/04/07 07:22:25;;;;;;;16.20;8.73;;;2.30;99.90;;;;;;5051713;28;20123;-58
2021/04/07 07:24:59;;;;;;;18.63;9.25;;;2.50;99.90;;;;;;5051243;28;20372;-58
2021/04/07 07:27:44;;;;;;;23.50;9.18;;;2.60;99.90;;;;;;5050688;28;20132;-55
2021/04/07 07:30:13;;;;;;;20.60;9.13;;;2.60;99.90;;;;;;5051371;28;20079;-57
2021/04/07 07:32:41;;;;;;;21.23;8.05;;;2.70;99.90;;;;;;5051081;28;20053;-57
2021/04/07 07:35:09;;;;;;;21.50;8.38;;;2.70;99.90;;;;;;5051675;28;20072;-57
2021/04/07 07:37:36;;;;;;;16.38;7.88;;;2.90;99.90;;;;;;5051042;28;20087;-57
2021/04/07 07:40:19;;;;;;;14.13;7.90;;;2.90;99.90;;;;;;5051202;28;20045;-57
2021/04/07 07:42:45;;;;;;;18.98;8.27;;;3.00;99.90;;;;;;5050613;28;20052;-57
2021/04/07 07:45:13;;;;;;;15.85;6.65;;;3.20;99.90;;;;;;5049361;28;20131;-57
2021/04/07 07:47:42;;;;;;;15.35;6.63;;;3.30;99.90;;;;;;5050559;28;20045;-58
2021/04/07 07:50:09;;;;;;;21.00;6.72;;;3.40;99.90;;;;;;5050330;28;20519;-57
2021/04/07 07:52:37;;;;;;;22.10;6.03;;;3.60;99.90;;;;;;5050724;28;20045;-57
2021/04/07 07:55:18;;;;;;;24.80;6.20;;;3.70;99.90;;;;;;5050748;28;20064;-57
2021/04/07 07:57:57;;;;;;;19.17;4.35;;;3.90;99.90;;;;;;5050610;28;20151;-57
2021/04/07 08:00:24;;;;;;;15.35;3.15;;;4.20;99.90;;;;;;5050355;28;20053;-57
2021/04/07 08:02:51;;;;;;;15.48;2.92;;;4.60;99.90;;;;;;5050230;28;20086;-56
2021/04/07 08:05:21;;;;;;;14.35;3.08;;;4.80;99.90;;;;;;5050329;28;20198;-56
2021/04/07 08:07:47;;;;;;;18.70;2.80;;;5.00;99.90;;;;;;5050229;28;20056;-57
2021/04/07 08:10:14;;;;;;;17.45;3.67;;;5.00;99.90;;;;;;5049996;28;20120;-57
2021/04/07 08:12:41;;;;;;;14.43;2.78;;;5.00;99.90;;;;;;5050335;28;20091;-57
2021/04/07 08:15:13;;;;;;;16.13;3.45;;;5.20;99.90;;;;;;5050208;28;20114;-57
2021/04/07 08:17:38;;;;;;;21.65;3.63;;;5.20;99.90;;;;;;5051234;28;20106;-57
2021/04/07 08:20:06;;;;;;;16.97;3.00;;;5.10;99.90;;;;;;5050752;28;20040;-58
2021/04/07 08:22:36;;;;;;;16.85;3.17;;;5.10;99.90;;;;;;5050879;28;20052;-58
2021/04/07 08:25:03;;;;;;;20.02;2.90;;;5.10;99.90;;;;;;5050761;28;20128;-58
2021/04/07 08:27:30;;;;;;;16.92;3.28;;;5.10;99.90;;;;;;5050032;28;20130;-58
2021/04/07 08:29:56;;;;;;;15.88;2.60;;;5.20;99.90;;;;;;5050681;28;20438;-57
2021/04/07 08:32:22;;;;;;;11.88;2.17;;;5.00;99.90;;;;;;5050319;28;20120;-57
2021/04/07 08:34:49;;;;;;;14.18;2.45;;;4.90;99.90;;;;;;5050701;28;20125;-58
2021/04/07 08:37:25;;;;;;;16.27;2.33;;;5.20;99.90;;;;;;5050161;28;20049;-58
2021/04/07 08:39:51;;;;;;;13.85;2.83;;;4.80;99.90;;;;;;5050095;28;20106;-58
2021/04/07 08:42:17;;;;;;;12.57;2.47;;;4.80;99.90;;;;;;5049788;28;20124;-58
2021/04/07 08:44:45;;;;;;;7.83;1.73;;;5.00;99.90;;;;;;5049597;28;20127;-57
2021/04/07 08:47:25;;;;;;;10.57;2.30;;;5.00;99.90;;;;;;5050251;28;20041;-58
2021/04/07 08:50:01;;;;;;;10.10;2.10;;;5.00;99.90;;;;;;5049897;28;20040;-58
2021/04/07 08:52:27;;;;;;;13.82;2.30;;;5.20;99.90;;;;;;5049965;28;20045;-57
2021/04/07 08:54:59;;;;;;;9.20;2.13;;;5.50;99.90;;;;;;5049631;28;20158;-57
2021/04/07 08:57:32;;;;;;;11.40;2.90;;;5.70;99.90;;;;;;5049898;28;20299;-57
2021/04/07 09:00:01;;;;;;;16.33;3.42;;;5.70;99.90;;;;;;5049618;28;20049;-58
2021/04/07 09:02:27;;;;;;;10.05;2.42;;;5.70;99.90;;;;;;5049242;28;20045;-58
2021/04/07 09:05:07;;;;;;;12.93;2.78;;;5.70;99.90;;;;;;5050447;28;20049;-57
2021/04/07 09:07:39;;;;;;;12.75;2.60;;;5.70;99.90;;;;;;5050182;28;20149;-58
2021/04/07 09:10:23;;;;;;;10.93;2.03;;;5.60;99.90;;;;;;5050312;28;20057;-58
2021/04/07 09:12:51;;;;;;;9.82;1.85;;;5.60;99.90;;;;;;5050080;28;20615;-59
2021/04/07 09:15:22;;;;;;;16.95;3.17;;;5.60;99.90;;;;;;5049753;28;20493;-58
2021/04/07 09:17:56;;;;;;;15.93;2.78;;;5.60;99.90;;;;;;5048706;28;20044;-59
2021/04/07 09:20:43;;;;;;;16.85;2.72;;;5.60;99.90;;;;;;5050192;28;20439;-59
2021/04/07 09:23:11;;;;;;;21.73;3.47;;;5.70;99.90;;;;;;5050057;28;20103;-57
2021/04/07 09:25:43;;;;;;;16.83;3.10;;;5.70;99.90;;;;;;5049015;28;20148;-58
2021/04/07 09:28:09;;;;;;;20.95;3.55;;;5.80;99.90;;;;;;5049122;28;20111;-59
2021/04/07 09:31:24;;;;;;;23.67;3.75;;;5.90;99.90;;;;;;5047732;28;20100;-59
2021/04/07 09:33:55;;;;;;;24.88;3.38;;;6.00;99.90;;;;;;5032168;28;20057;-56
2021/04/07 09:36:25;;;;;;;27.45;2.95;;;5.90;99.90;;;;;;5049416;28;20048;-57
2021/04/07 09:38:53;;;;;;;14.25;2.75;;;5.50;99.90;;;;;;5049408;28;20064;-58
2021/04/07 09:41:25;;;;;;;15.63;3.00;;;4.80;99.90;;;;;;5049163;28;20049;-57
2021/04/07 09:43:54;;;;;;;21.67;3.22;;;4.60;99.90;;;;;;5049568;28;20072;-57
2021/04/07 09:46:20;;;;;;;27.00;4.30;;;4.70;99.90;;;;;;5049267;28;20124;-56
2021/04/07 09:48:50;;;;;;;34.05;3.90;;;4.80;99.90;;;;;;5047699;28;20533;-57
2021/04/07 09:51:21;;;;;;;25.52;3.75;;;5.00;99.90;;;;;;5047859;28;20055;-57
2021/04/07 09:53:47;;;;;;;27.75;3.92;;;5.30;99.90;;;;;;5049150;28;20114;-57
2021/04/07 09:56:13;;;;;;;23.90;3.87;;;5.50;99.90;;;;;;5049226;28;20433;-57
2021/04/07 09:58:43;;;;;;;30.58;4.97;;;5.80;99.90;;;;;;5049114;28;20442;-57
2021/04/07 10:01:11;;;;;;;25.67;3.53;;;6.00;99.90;;;;;;5049168;28;20045;-58
2021/04/07 10:03:37;;;;;;;30.73;4.10;;;5.90;99.90;;;;;;5048860;28;20049;-58
2021/04/07 10:06:03;;;;;;;25.20;3.90;;;6.00;99.90;;;;;;5050361;28;20135;-57
2021/04/07 10:08:28;;;;;;;20.83;3.23;;;5.90;99.90;;;;;;5047906;28;20117;-57
2021/04/07 10:11:08;;;;;;;20.53;3.43;;;5.90;99.90;;;;;;5049159;28;21048;-57
2021/04/07 10:13:34;;;;;;;19.08;3.67;;;5.90;99.90;;;;;;5048677;28;20049;-57
2021/04/07 10:16:01;;;;;;;26.30;3.78;;;5.90;99.90;;;;;;5048052;28;20132;-57
2021/04/07 10:18:27;;;;;;;16.38;3.10;;;6.10;99.90;;;;;;5048038;28;20049;-56
2021/04/07 10:20:52;;;;;;;20.10;4.03;;;6.20;99.90;;;;;;5047585;28;20037;-58
2021/04/07 10:23:21;;;;;;;20.87;3.97;;;6.20;99.90;;;;;;5048285;28;20041;-58
2021/04/07 10:25:53;;;;;;;17.95;3.17;;;6.10;99.90;;;;;;5047912;28;20438;-57
2021/04/07 10:28:19;;;;;;;20.23;3.63;;;6.10;99.90;;;;;;5047979;28;20115;-58
2021/04/07 10:30:45;;;;;;;18.95;3.55;;;6.20;99.90;;;;;;5049218;28;20132;-58
2021/04/07 10:33:11;;;;;;;22.80;3.63;;;6.30;99.90;;;;;;5048969;28;20504;-57
2021/04/07 10:35:40;;;;;;;16.33;3.42;;;6.20;99.90;;;;;;5048556;28;20049;-57
2021/04/07 10:38:12;;;;;;;12.50;2.90;;;6.30;99.90;;;;;;5048589;28;20045;-56
2021/04/07 10:40:41;;;;;;;18.88;2.97;;;6.30;99.90;;;;;;5048286;28;20506;-57
2021/04/07 10:43:17;;;;;;;15.98;3.35;;;6.20;99.90;;;;;;5048601;28;20171;-57
2021/04/07 10:45:43;;;;;;;14.00;2.90;;;6.10;99.90;;;;;;5048454;28;20492;-57
2021/04/07 10:48:09;;;;;;;11.55;2.15;;;6.10;99.90;;;;;;5048666;28;20221;-61
2021/04/07 10:50:40;;;;;;;11.43;2.10;;;6.00;99.90;;;;;;5048997;28;20088;-57
2021/04/07 10:53:06;;;;;;;15.10;2.70;;;6.10;99.90;;;;;;5048281;28;20135;-55
2021/04/07 10:55:33;;;;;;;16.13;2.75;;;6.00;99.90;;;;;;5048273;28;20064;-57
2021/04/07 10:58:00;;;;;;;23.17;4.00;;;6.00;99.90;;;;;;5048617;28;20063;-58
2021/04/07 11:00:33;;;;;;;15.65;2.63;;;5.80;99.90;;;;;;5048955;28;20083;-58
2021/04/07 11:03:00;;;;;;;14.65;2.75;;;6.00;99.90;;;;;;5046691;28;20068;-59
2021/04/07 11:05:46;;;;;;;17.85;3.42;;;6.10;99.90;;;;;;5048590;28;20056;-58
2021/04/07 11:08:14;;;;;;;16.65;2.83;;;6.30;99.90;;;;;;5048675;28;20052;-58
2021/04/07 11:10:49;;;;;;;19.10;3.38;;;6.50;99.90;;;;;;5048635;28;20048;-58
2021/04/07 11:13:17;;;;;;;21.40;3.13;;;6.60;99.90;;;;;;5048854;28;20040;-57
2021/04/07 11:15:43;;;;;;;19.55;3.42;;;6.60;99.90;;;;;;5048793;28;20045;-58
2021/04/07 11:18:09;;;;;;;20.50;3.70;;;6.60;99.90;;;;;;5048423;28;20053;-58
2021/04/07 11:20:37;;;;;;;21.23;2.92;;;6.70;99.90;;;;;;5048709;28;20143;-57
2021/04/07 11:23:03;;;;;;;18.52;3.47;;;6.70;99.90;;;;;;5048627;28;20501;-58
2021/04/07 11:25:29;;;;;;;17.97;3.57;;;6.90;99.90;;;;;;5050043;28;20049;-57
2021/04/07 11:27:57;;;;;;;20.30;3.67;;;6.90;99.90;;;;;;5051981;28;20053;-58
2021/04/07 11:30:24;;;;;;;18.85;3.08;;;6.80;99.90;;;;;;5052023;28;20071;-58
2021/04/07 11:32:54;;;;;;;17.27;3.15;;;6.60;99.90;;;;;;5051947;28;20496;-57
2021/04/07 11:35:25;;;;;;;18.13;3.78;;;6.10;99.90;;;;;;5043295;28;20103;-57
2021/04/07 11:38:04;;;;;;;17.58;3.03;;;5.50;99.90;;;;;;5041366;28;20057;-58
2021/04/07 11:45:32;;;;;;;24.30;3.97;;;5.30;99.90;;;;;;5041187;28;20041;-57
2021/04/07 11:47:58;;;;;;;16.63;2.70;;;5.50;99.90;;;;;;5041819;28;20128;-60
2021/04/07 11:50:24;;;;;;;22.83;3.23;;;5.50;99.90;;;;;;5040096;28;20041;-60
2021/04/07 11:52:49;;;;;;;21.90;3.70;;;5.50;99.90;;;;;;5041278;28;20439;-58
2021/04/07 11:55:15;;;;;;;14.67;2.90;;;5.60;99.90;;;;;;5042031;28;20041;-57
2021/04/07 11:57:41;;;;;;;23.70;4.00;;;5.60;99.90;;;;;;5040138;28;20425;-66
2021/04/07 12:00:09;;;;;;;24.40;4.37;;;5.60;99.90;;;;;;5041580;28;20068;-57
2021/04/07 12:02:39;;;;;;;17.58;2.85;;;4.90;99.90;;;;;;5041623;28;20041;-56
2021/04/07 12:05:06;;;;;;;14.57;3.03;;;4.50;99.90;;;;;;5040099;28;20045;-57
2021/04/07 12:07:32;;;;;;;12.50;2.67;;;4.50;99.90;;;;;;5040057;28;20080;-57
2021/04/07 12:09:58;;;;;;;14.97;3.20;;;4.60;99.90;;;;;;5040009;28;20079;-57
2021/04/07 12:12:24;;;;;;;14.63;2.70;;;4.90;99.90;;;;;;5037109;28;20041;-57
2021/04/07 12:14:49;;;;;;;17.10;2.83;;;5.10;99.90;;;;;;5040010;28;20049;-55
2021/04/07 12:17:15;;;;;;;12.87;2.33;;;5.30;99.90;;;;;;5042056;28;20415;-57
2021/04/07 12:19:41;;;;;;;14.43;2.87;;;5.60;99.90;;;;;;5040797;28;20157;-57
2021/04/07 12:22:07;;;;;;;20.40;2.93;;;5.80;99.90;;;;;;5040284;28;20427;-56
2021/04/07 12:24:32;;;;;;;17.63;3.03;;;5.90;99.90;;;;;;5038439;28;20069;-57
2021/04/07 12:26:58;;;;;;;20.07;2.97;;;5.80;99.90;;;;;;5039222;28;20056;-58
2021/04/07 12:29:24;;;;;;;15.67;2.77;;;5.80;99.90;;;;;;5044291;28;20045;-56
2021/04/07 12:31:49;;;;;;;11.60;2.90;;;5.40;99.90;;;;;;5043445;28;20049;-57
2021/04/07 12:34:15;;;;;;;17.83;3.10;;;4.90;99.90;;;;;;5042879;28;20053;-56
2021/04/07 12:36:42;;;;;;;16.08;3.20;;;4.70;99.90;;;;;;5052478;28;20041;-64
2021/04/07 12:39:08;;;;;;;18.50;2.87;;;4.70;99.90;;;;;;5048808;28;20123;-61
2021/04/07 12:41:48;;;;;;;10.82;2.28;;;5.00;99.90;;;;;;5050756;28;20048;-55
2021/04/07 12:44:14;;;;;;;11.40;2.60;;;4.80;99.90;;;;;;5050783;28;20132;-56
2021/04/07 12:46:40;;;;;;;19.30;3.27;;;5.00;99.90;;;;;;5049087;28;20073;-56
2021/04/07 12:49:07;;;;;;;22.75;3.38;;;5.20;99.90;;;;;;5049665;28;20099;-57
2021/04/07 12:51:33;;;;;;;17.52;2.70;;;5.30;99.90;;;;;;5050119;28;20045;-57
2021/04/07 12:53:59;;;;;;;15.60;2.37;;;5.40;99.90;;;;;;5049599;28;20401;-59
2021/04/07 12:56:25;;;;;;;13.87;3.03;;;5.50;99.90;;;;;;5049988;28;20049;-57